createdAt,value
2022-09-22T00:00:30.450Z,8.77
2022-09-22T00:01:30.841Z,8.75
2022-09-22T00:02:30.785Z,8.77
2022-09-22T00:03:30.442Z,8.74
2022-09-22T00:04:30.493Z,8.77
2022-09-22T00:05:30.585Z,8.71
2022-09-22T00:06:30.467Z,8.71
2022-09-22T00:07:30.512Z,8.68
2022-09-22T00:08:33.472Z,8.69
2022-09-22T00:09:30.459Z,8.64
2022-09-22T00:10:30.450Z,8.68
2022-09-22T00:11:30.480Z,8.6
2022-09-22T00:12:30.496Z,8.53
2022-09-22T00:13:33.487Z,8.5
2022-09-22T00:14:30.495Z,8.6
2022-09-22T00:15:30.538Z,8.75
2022-09-22T00:16:30.871Z,8.63
2022-09-22T00:17:30.364Z,8.72
2022-09-22T00:18:30.476Z,8.63
2022-09-22T00:19:33.235Z,8.71
2022-09-22T00:20:30.467Z,8.66
2022-09-22T00:21:30.543Z,8.64
2022-09-22T00:22:30.515Z,8.6
2022-09-22T00:23:30.517Z,8.59
2022-09-22T00:24:33.254Z,8.49
2022-09-22T00:25:30.478Z,8.46
2022-09-22T00:26:30.472Z,8.56
2022-09-22T00:27:30.520Z,8.57
2022-09-22T00:28:30.510Z,8.42
2022-09-22T00:29:30.488Z,8.46
2022-09-22T00:30:33.585Z,8.39
2022-09-22T00:31:30.742Z,8.44
2022-09-22T00:32:30.500Z,8.42
2022-09-22T00:33:30.488Z,8.5
2022-09-22T00:34:30.490Z,8.52
2022-09-22T00:35:33.570Z,8.45
2022-09-22T00:36:30.509Z,8.49
2022-09-22T00:37:30.562Z,8.35
2022-09-22T00:38:30.495Z,8.38
2022-09-22T00:39:30.566Z,8.35
2022-09-22T00:40:30.739Z,8.28
2022-09-22T00:41:30.511Z,8.36
2022-09-22T00:42:30.525Z,8.38
2022-09-22T00:43:30.537Z,8.34
2022-09-22T00:44:30.506Z,8.42
2022-09-22T00:45:30.505Z,8.34
2022-09-22T00:46:33.505Z,8.38
2022-09-22T00:47:30.528Z,8.27
2022-09-22T00:48:30.529Z,8.31
2022-09-22T00:49:30.514Z,8.32
2022-09-22T00:50:30.515Z,8.27
2022-09-22T00:51:30.520Z,8.32
2022-09-22T00:52:30.535Z,8.42
2022-09-22T00:53:30.548Z,8.39
2022-09-22T00:54:30.523Z,8.36
2022-09-22T00:55:31.592Z,8.39
2022-09-22T00:56:30.522Z,8.39
2022-09-22T00:57:33.576Z,8.36
2022-09-22T00:58:30.548Z,8.34
2022-09-22T00:59:30.555Z,8.31
2022-09-22T01:00:30.749Z,8.27
2022-09-22T01:01:30.639Z,8.27
2022-09-22T01:02:30.561Z,8.28
2022-09-22T01:03:37.371Z,8.27
2022-09-22T01:04:30.538Z,8.23
2022-09-22T01:05:30.532Z,8.24
2022-09-22T01:06:30.537Z,8.26
2022-09-22T01:07:30.552Z,8.18
2022-09-22T01:08:33.648Z,8.13
2022-09-22T01:09:30.544Z,8.23
2022-09-22T01:10:30.602Z,8.24
2022-09-22T01:11:30.572Z,8.18
2022-09-22T01:12:33.768Z,8.17
2022-09-22T01:13:30.551Z,8.13
2022-09-22T01:14:30.557Z,8.18
2022-09-22T01:15:30.581Z,8.28
2022-09-22T01:16:30.745Z,8.16
2022-09-22T01:17:30.562Z,8.06
2022-09-22T01:18:30.567Z,8.08
2022-09-22T01:19:33.622Z,8.03
2022-09-22T01:20:30.562Z,8.01
2022-09-22T01:21:30.559Z,8.05
2022-09-22T01:22:30.582Z,8.01
2022-09-22T01:23:30.556Z,7.98
2022-09-22T01:24:30.583Z,8.03
2022-09-22T01:25:30.566Z,8.06
2022-09-22T01:26:30.562Z,8.02
2022-09-22T01:27:30.605Z,8.05
2022-09-22T01:28:30.561Z,8.06
2022-09-22T01:29:30.591Z,8.01
2022-09-22T01:30:33.384Z,8.06
2022-09-22T01:31:30.866Z,8.03
2022-09-22T01:32:30.594Z,8.01
2022-09-22T01:33:30.593Z,8.01
2022-09-22T01:34:30.581Z,8.05
2022-09-22T01:35:30.568Z,8.03
2022-09-22T01:36:30.584Z,8.02
2022-09-22T01:37:30.616Z,7.93
2022-09-22T01:38:31.613Z,7.98
2022-09-22T01:39:30.583Z,7.91
2022-09-22T01:40:30.763Z,7.91
2022-09-22T01:41:33.615Z,7.9
2022-09-22T01:42:30.622Z,7.9
2022-09-22T01:43:30.699Z,7.99
2022-09-22T01:44:30.593Z,7.93
2022-09-22T01:45:30.607Z,7.87
2022-09-22T01:46:30.829Z,7.83
2022-09-22T01:47:30.637Z,7.87
2022-09-22T01:48:30.595Z,7.85
2022-09-22T01:49:30.597Z,7.84
2022-09-22T01:50:30.589Z,7.75
2022-09-22T01:51:30.727Z,7.75
2022-09-22T01:52:33.468Z,7.7
2022-09-22T01:53:30.604Z,7.69
2022-09-22T01:54:30.602Z,7.64
2022-09-22T01:55:30.611Z,7.69
2022-09-22T01:56:30.629Z,7.8
2022-09-22T01:57:30.634Z,7.72
2022-09-22T01:58:30.651Z,7.69
2022-09-22T01:59:30.637Z,7.64
2022-09-22T02:00:30.620Z,7.64
2022-09-22T02:01:31.119Z,7.58
2022-09-22T02:02:31.387Z,7.64
2022-09-22T02:03:30.651Z,7.62
2022-09-22T02:04:30.538Z,7.7
2022-09-22T02:05:30.618Z,7.72
2022-09-22T02:06:30.620Z,7.67
2022-09-22T02:07:30.642Z,7.62
2022-09-22T02:08:30.624Z,7.64
2022-09-22T02:09:30.695Z,7.64
2022-09-22T02:10:30.626Z,7.66
2022-09-22T02:11:30.624Z,7.66
2022-09-22T02:12:30.667Z,7.69
2022-09-22T02:13:30.637Z,7.67
2022-09-22T02:14:30.657Z,7.59
2022-09-22T02:15:30.697Z,7.64
2022-09-22T02:16:30.848Z,7.56
2022-09-22T02:17:36.673Z,7.62
2022-09-22T02:18:30.628Z,7.5
2022-09-22T02:19:30.657Z,7.53
2022-09-22T02:20:30.637Z,7.51
2022-09-22T02:21:30.644Z,7.5
2022-09-22T02:22:30.651Z,7.51
2022-09-22T02:23:30.651Z,7.51
2022-09-22T02:24:33.750Z,7.56
2022-09-22T02:25:30.659Z,7.5
2022-09-22T02:26:30.651Z,7.55
2022-09-22T02:27:30.659Z,7.51
2022-09-22T02:28:30.664Z,7.55
2022-09-22T02:29:30.650Z,7.5
2022-09-22T02:30:30.652Z,7.44
2022-09-22T02:31:30.891Z,7.44
2022-09-22T02:32:30.731Z,7.48
2022-09-22T02:33:32.886Z,7.51
2022-09-22T02:34:30.691Z,7.41
2022-09-22T02:35:33.542Z,7.37
2022-09-22T02:36:30.660Z,7.37
2022-09-22T02:37:30.679Z,7.33
2022-09-22T02:38:30.663Z,7.29
2022-09-22T02:39:30.673Z,7.32
2022-09-22T02:40:33.794Z,7.31
2022-09-22T02:41:30.660Z,7.29
2022-09-22T02:42:30.848Z,7.23
2022-09-22T02:43:30.664Z,7.14
2022-09-22T02:44:30.577Z,7.18
2022-09-22T02:45:30.671Z,7.22
2022-09-22T02:46:34.067Z,7.29
2022-09-22T02:47:30.745Z,7.23
2022-09-22T02:48:30.802Z,7.33
2022-09-22T02:49:30.685Z,7.21
2022-09-22T02:50:30.672Z,7.22
2022-09-22T02:51:33.602Z,7.23
2022-09-22T02:52:30.707Z,7.22
2022-09-22T02:53:30.699Z,7.19
2022-09-22T02:54:30.681Z,7.26
2022-09-22T02:55:30.682Z,7.25
2022-09-22T02:56:30.687Z,7.21
2022-09-22T02:57:33.744Z,7.31
2022-09-22T02:58:30.678Z,7.22
2022-09-22T02:59:30.687Z,7.22
2022-09-22T03:00:30.715Z,7.11
2022-09-22T03:01:30.809Z,7.32
2022-09-22T03:02:33.851Z,7.22
2022-09-22T03:03:30.699Z,7.15
2022-09-22T03:04:30.906Z,7.19
2022-09-22T03:05:30.709Z,7.19
2022-09-22T03:06:30.691Z,7.18
2022-09-22T03:07:30.740Z,7.23
2022-09-22T03:08:30.697Z,7.15
2022-09-22T03:09:30.693Z,7.21
2022-09-22T03:10:30.701Z,7
2022-09-22T03:11:30.708Z,7.08
2022-09-22T03:12:30.729Z,7.18
2022-09-22T03:13:33.717Z,7.13
2022-09-22T03:14:30.703Z,7.18
2022-09-22T03:15:31.954Z,7.26
2022-09-22T03:16:30.726Z,7.19
2022-09-22T03:17:30.728Z,7.14
2022-09-22T03:18:30.735Z,7.21
2022-09-22T03:19:30.711Z,7.15
2022-09-22T03:20:33.886Z,7.21
2022-09-22T03:21:30.738Z,7.1
2022-09-22T03:22:30.740Z,7.19
2022-09-22T03:23:30.739Z,7.03
2022-09-22T03:24:33.834Z,7.04
2022-09-22T03:25:30.733Z,6.97
2022-09-22T03:26:30.719Z,7.04
2022-09-22T03:27:30.729Z,7.05
2022-09-22T03:28:30.723Z,7.01
2022-09-22T03:29:30.721Z,7.05
2022-09-22T03:30:30.762Z,7.05
2022-09-22T03:31:30.734Z,7.07
2022-09-22T03:32:30.763Z,7.04
2022-09-22T03:33:30.732Z,6.97
2022-09-22T03:34:30.747Z,6.96
2022-09-22T03:35:33.585Z,7.08
2022-09-22T03:36:30.745Z,7
2022-09-22T03:37:30.766Z,7.04
2022-09-22T03:38:30.734Z,6.89
2022-09-22T03:39:30.760Z,7.04
2022-09-22T03:40:30.969Z,6.92
2022-09-22T03:41:30.741Z,7.08
2022-09-22T03:42:30.762Z,6.97
2022-09-22T03:43:30.740Z,7.04
2022-09-22T03:44:30.737Z,7.03
2022-09-22T03:45:30.746Z,6.97
2022-09-22T03:46:33.919Z,7.03
2022-09-22T03:47:30.778Z,6.95
2022-09-22T03:48:30.770Z,6.96
2022-09-22T03:49:30.747Z,6.95
2022-09-22T03:50:30.823Z,6.9
2022-09-22T03:51:30.759Z,6.96
2022-09-22T03:52:30.781Z,6.96
2022-09-22T03:53:30.757Z,6.89
2022-09-22T03:54:30.755Z,6.92
2022-09-22T03:55:30.777Z,6.93
2022-09-22T03:56:30.756Z,6.93
2022-09-22T03:57:34.551Z,6.97
2022-09-22T03:58:30.763Z,6.92
2022-09-22T03:59:30.769Z,6.86
2022-09-22T04:00:30.775Z,7.01
2022-09-22T04:01:31.093Z,6.9
2022-09-22T04:02:31.007Z,6.9
2022-09-22T04:03:30.770Z,6.93
2022-09-22T04:04:30.798Z,6.85
2022-09-22T04:05:30.771Z,6.9
2022-09-22T04:06:30.861Z,6.87
2022-09-22T04:07:30.760Z,6.75
2022-09-22T04:08:33.713Z,6.85
2022-09-22T04:09:30.781Z,6.82
2022-09-22T04:10:30.768Z,6.82
2022-09-22T04:11:30.803Z,6.8
2022-09-22T04:12:30.795Z,6.74
2022-09-22T04:13:30.770Z,6.85
2022-09-22T04:14:30.774Z,6.75
2022-09-22T04:15:30.779Z,6.75
2022-09-22T04:16:30.912Z,6.75
2022-09-22T04:17:30.776Z,6.68
2022-09-22T04:18:30.788Z,6.68
2022-09-22T04:19:33.789Z,6.77
2022-09-22T04:20:30.811Z,6.72
2022-09-22T04:21:30.809Z,6.77
2022-09-22T04:22:30.845Z,6.7
2022-09-22T04:23:30.787Z,6.68
2022-09-22T04:24:30.866Z,6.72
2022-09-22T04:25:30.789Z,6.78
2022-09-22T04:26:31.823Z,6.78
2022-09-22T04:27:30.815Z,6.75
2022-09-22T04:28:30.782Z,6.71
2022-09-22T04:29:30.796Z,6.74
2022-09-22T04:30:31.006Z,6.75
2022-09-22T04:31:30.811Z,6.71
2022-09-22T04:32:30.813Z,6.64
2022-09-22T04:33:30.801Z,6.72
2022-09-22T04:34:30.800Z,6.72
2022-09-22T04:35:30.799Z,6.67
2022-09-22T04:36:30.825Z,6.74
2022-09-22T04:37:33.572Z,6.71
2022-09-22T04:38:30.816Z,6.72
2022-09-22T04:39:30.868Z,6.75
2022-09-22T04:40:30.968Z,6.68
2022-09-22T04:41:32.589Z,6.74
2022-09-22T04:42:30.870Z,6.68
2022-09-22T04:43:30.832Z,6.75
2022-09-22T04:44:35.271Z,6.64
2022-09-22T04:45:30.816Z,6.59
2022-09-22T04:46:31.086Z,6.64
2022-09-22T04:47:30.818Z,6.68
2022-09-22T04:48:30.819Z,6.65
2022-09-22T04:49:30.813Z,6.74
2022-09-22T04:50:30.803Z,6.6
2022-09-22T04:51:33.647Z,6.71
2022-09-22T04:52:30.851Z,6.71
2022-09-22T04:53:30.843Z,6.62
2022-09-22T04:54:30.829Z,6.68
2022-09-22T04:55:30.824Z,6.74
2022-09-22T04:56:30.827Z,6.67
2022-09-22T04:57:30.824Z,6.6
2022-09-22T04:58:30.827Z,6.74
2022-09-22T04:59:30.858Z,6.75
2022-09-22T05:00:30.829Z,6.7
2022-09-22T05:01:31.113Z,6.68
2022-09-22T05:02:34.023Z,6.74
2022-09-22T05:03:30.992Z,6.83
2022-09-22T05:04:30.845Z,6.74
2022-09-22T05:05:30.836Z,6.82
2022-09-22T05:06:30.825Z,6.8
2022-09-22T05:07:33.609Z,6.75
2022-09-22T05:08:30.854Z,6.87
2022-09-22T05:09:30.870Z,6.89
2022-09-22T05:10:30.843Z,6.74
2022-09-22T05:11:30.845Z,6.86
2022-09-22T05:12:30.847Z,6.86
2022-09-22T05:13:33.637Z,6.78
2022-09-22T05:14:31.183Z,6.74
2022-09-22T05:15:30.911Z,6.75
2022-09-22T05:16:31.029Z,6.7
2022-09-22T05:17:30.855Z,6.77
2022-09-22T05:18:32.820Z,6.74
2022-09-22T05:19:30.846Z,6.77
2022-09-22T05:20:30.851Z,6.75
2022-09-22T05:21:30.848Z,6.77
2022-09-22T05:22:30.912Z,6.83
2022-09-22T05:23:30.944Z,6.9
2022-09-22T05:24:33.999Z,6.78
2022-09-22T05:25:30.874Z,6.75
2022-09-22T05:26:30.858Z,6.75
2022-09-22T05:27:30.852Z,6.75
2022-09-22T05:28:30.881Z,6.95
2022-09-22T05:29:33.886Z,6.78
2022-09-22T05:30:30.874Z,6.89
2022-09-22T05:31:31.146Z,6.89
2022-09-22T05:32:30.873Z,6.72
2022-09-22T05:33:30.891Z,6.89
2022-09-22T05:34:30.871Z,6.93
2022-09-22T05:35:37.220Z,6.96
2022-09-22T05:36:30.863Z,6.97
2022-09-22T05:37:30.882Z,6.9
2022-09-22T05:38:30.880Z,6.86
2022-09-22T05:39:30.899Z,6.96
2022-09-22T05:40:33.938Z,6.78
2022-09-22T05:41:30.876Z,6.77
2022-09-22T05:42:31.892Z,6.8
2022-09-22T05:43:30.884Z,6.92
2022-09-22T05:44:31.981Z,7.03
2022-09-22T05:45:31.086Z,7.05
2022-09-22T05:46:30.887Z,7.01
2022-09-22T05:47:30.920Z,6.85
2022-09-22T05:48:35.581Z,6.93
2022-09-22T05:49:34.043Z,7.04
2022-09-22T05:50:30.906Z,6.9
2022-09-22T05:51:34.084Z,7.03
2022-09-22T05:52:30.896Z,7.01
2022-09-22T05:53:30.899Z,6.97
2022-09-22T05:54:30.894Z,6.97
2022-09-22T05:55:30.915Z,7.14
2022-09-22T05:56:30.922Z,7.01
2022-09-22T05:57:30.889Z,7.05
2022-09-22T05:58:30.892Z,6.97
2022-09-22T05:59:30.936Z,7.21
2022-09-22T06:00:30.986Z,7.14
2022-09-22T06:01:31.151Z,7.18
2022-09-22T06:02:32.407Z,7.14
2022-09-22T06:03:30.930Z,7.14
2022-09-22T06:04:30.895Z,7.19
2022-09-22T06:05:30.916Z,7.21
2022-09-22T06:06:30.901Z,7.15
2022-09-22T06:07:30.909Z,7.14
2022-09-22T06:08:30.906Z,7.31
2022-09-22T06:09:30.957Z,7.18
2022-09-22T06:10:31.003Z,7.19
2022-09-22T06:11:30.946Z,7.11
2022-09-22T06:12:30.941Z,7
2022-09-22T06:13:34.060Z,7
2022-09-22T06:14:30.949Z,7.08
2022-09-22T06:15:30.951Z,7.14
2022-09-22T06:16:31.200Z,7.18
2022-09-22T06:17:30.940Z,7.07
2022-09-22T06:18:30.931Z,7.14
2022-09-22T06:19:30.985Z,7.1
2022-09-22T06:20:31.041Z,7.22
2022-09-22T06:21:30.979Z,7.15
2022-09-22T06:22:30.918Z,7.19
2022-09-22T06:23:30.925Z,7.21
2022-09-22T06:24:33.721Z,7.22
2022-09-22T06:25:30.940Z,7.26
2022-09-22T06:26:30.934Z,7.32
2022-09-22T06:27:30.952Z,7.19
2022-09-22T06:28:30.952Z,7.37
2022-09-22T06:29:30.948Z,7.32
2022-09-22T06:30:31.031Z,7.37
2022-09-22T06:31:31.138Z,7.31
2022-09-22T06:32:30.930Z,7.4
2022-09-22T06:33:30.951Z,7.41
2022-09-22T06:34:30.954Z,7.39
2022-09-22T06:35:33.982Z,7.39
2022-09-22T06:36:30.946Z,7.46
2022-09-22T06:37:30.937Z,7.36
2022-09-22T06:38:30.938Z,7.39
2022-09-22T06:39:30.969Z,7.37
2022-09-22T06:40:31.262Z,7.37
2022-09-22T06:41:30.952Z,7.4
2022-09-22T06:42:30.983Z,7.43
2022-09-22T06:43:30.977Z,7.47
2022-09-22T06:44:31.004Z,7.46
2022-09-22T06:45:31.261Z,7.5
2022-09-22T06:46:34.171Z,7.46
2022-09-22T06:47:30.953Z,7.5
2022-09-22T06:48:30.959Z,7.56
2022-09-22T06:49:30.972Z,7.51
2022-09-22T06:50:34.709Z,7.59
2022-09-22T06:51:30.986Z,7.56
2022-09-22T06:52:30.972Z,7.64
2022-09-22T06:53:32.234Z,7.69
2022-09-22T06:54:30.999Z,7.62
2022-09-22T06:55:30.963Z,7.66
2022-09-22T06:56:33.364Z,7.88
2022-09-22T06:57:30.990Z,7.9
2022-09-22T06:58:38.692Z,7.9
2022-09-22T06:59:31.019Z,8.01
2022-09-22T07:00:31.067Z,8.02
2022-09-22T07:01:31.299Z,8.03
2022-09-22T07:02:31.048Z,8.13
2022-09-22T07:03:31.204Z,8.03
2022-09-22T07:04:30.995Z,8.18
2022-09-22T07:05:30.978Z,8.14
2022-09-22T07:06:30.983Z,8.2
2022-09-22T07:07:31.017Z,8.28
2022-09-22T07:08:30.997Z,8.32
2022-09-22T07:09:31.002Z,8.42
2022-09-22T07:10:30.988Z,8.56
2022-09-22T07:11:30.988Z,8.61
2022-09-22T07:12:31.010Z,8.72
2022-09-22T07:13:30.988Z,8.69
2022-09-22T07:14:31.019Z,8.77
2022-09-22T07:15:33.773Z,8.69
2022-09-22T07:16:31.219Z,8.75
2022-09-22T07:17:31.007Z,8.74
2022-09-22T07:18:33.815Z,8.87
2022-09-22T07:19:31.049Z,8.77
2022-09-22T07:20:30.994Z,8.78
2022-09-22T07:21:31.007Z,8.82
2022-09-22T07:22:31.007Z,8.81
2022-09-22T07:23:31.141Z,8.87
2022-09-22T07:24:31.019Z,8.86
2022-09-22T07:25:31.007Z,8.78
2022-09-22T07:26:31.171Z,8.87
2022-09-22T07:27:31.008Z,8.87
2022-09-22T07:28:31.005Z,8.77
2022-09-22T07:29:33.903Z,8.84
2022-09-22T07:30:31.022Z,8.74
2022-09-22T07:31:33.862Z,8.79
2022-09-22T07:32:31.024Z,8.79
2022-09-22T07:33:31.016Z,8.75
2022-09-22T07:34:31.853Z,8.78
2022-09-22T07:35:31.027Z,8.69
2022-09-22T07:36:31.029Z,8.64
2022-09-22T07:37:31.018Z,8.69
2022-09-22T07:38:31.020Z,8.77
2022-09-22T07:39:31.084Z,8.79
2022-09-22T07:40:34.554Z,8.82
2022-09-22T07:41:31.047Z,8.78
2022-09-22T07:42:30.880Z,8.89
2022-09-22T07:43:31.037Z,8.93
2022-09-22T07:44:31.048Z,8.92
2022-09-22T07:45:33.901Z,9
2022-09-22T07:46:31.150Z,9.15
2022-09-22T07:47:31.087Z,9.33
2022-09-22T07:48:31.040Z,9.37
2022-09-22T07:49:31.048Z,9.4
2022-09-22T07:50:31.043Z,9.4
2022-09-22T07:51:34.092Z,9.51
2022-09-22T07:52:31.040Z,9.66
2022-09-22T07:53:31.044Z,9.73
2022-09-22T07:54:31.084Z,9.7
2022-09-22T07:55:31.067Z,9.99
2022-09-22T07:56:33.848Z,10.1
2022-09-22T07:57:31.054Z,10.33
2022-09-22T07:58:31.054Z,10.51
2022-09-22T07:59:31.081Z,10.58
2022-09-22T08:00:31.298Z,10.8
2022-09-22T08:01:31.063Z,11.2
2022-09-22T08:02:31.162Z,11.58
2022-09-22T08:03:31.135Z,11.77
2022-09-22T08:04:31.398Z,12.03
2022-09-22T08:05:31.069Z,12.17
2022-09-22T08:06:31.108Z,12.36
2022-09-22T08:07:33.829Z,12.47
2022-09-22T08:08:31.071Z,12.69
2022-09-22T08:09:31.096Z,12.72
2022-09-22T08:10:31.083Z,13.06
2022-09-22T08:11:31.101Z,13.19
2022-09-22T08:12:31.087Z,13.31
2022-09-22T08:13:31.085Z,13.57
2022-09-22T08:14:31.098Z,13.73
2022-09-22T08:15:32.135Z,13.71
2022-09-22T08:16:31.307Z,13.98
2022-09-22T08:17:31.084Z,14.12
2022-09-22T08:18:34.001Z,14.3
2022-09-22T08:19:31.126Z,14.48
2022-09-22T08:20:31.152Z,14.63
2022-09-22T08:21:31.091Z,14.74
2022-09-22T08:22:31.099Z,14.78
2022-09-22T08:23:31.123Z,14.78
2022-09-22T08:24:31.116Z,14.89
2022-09-22T08:25:31.095Z,14.92
2022-09-22T08:26:31.099Z,14.97
2022-09-22T08:27:31.130Z,15.02
2022-09-22T08:28:31.102Z,15.15
2022-09-22T08:29:32.635Z,15.32
2022-09-22T08:30:31.192Z,15.25
2022-09-22T08:31:31.379Z,15.36
2022-09-22T08:32:31.109Z,15.47
2022-09-22T08:33:31.112Z,15.52
2022-09-22T08:34:31.192Z,15.75
2022-09-22T08:35:31.150Z,15.88
2022-09-22T08:36:31.124Z,16.1
2022-09-22T08:37:31.124Z,16.25
2022-09-22T08:38:31.119Z,16.34
2022-09-22T08:39:31.159Z,16.46
2022-09-22T08:40:34.437Z,16.41
2022-09-22T08:41:31.117Z,16.34
2022-09-22T08:42:31.136Z,16.54
2022-09-22T08:43:31.169Z,16.76
2022-09-22T08:44:31.145Z,16.79
2022-09-22T08:45:31.807Z,16.73
2022-09-22T08:46:31.343Z,16.94
2022-09-22T08:47:31.140Z,17.09
2022-09-22T08:48:31.142Z,17.07
2022-09-22T08:49:31.157Z,17.24
2022-09-22T08:50:31.224Z,17.07
2022-09-22T08:51:34.820Z,17.31
2022-09-22T08:52:30.993Z,17.42
2022-09-22T08:53:31.143Z,17.47
2022-09-22T08:54:31.167Z,17.46
2022-09-22T08:55:31.177Z,17.76
2022-09-22T08:56:31.156Z,17.87
2022-09-22T08:57:31.155Z,18.13
2022-09-22T08:58:31.154Z,18.09
2022-09-22T08:59:31.194Z,18.05
2022-09-22T09:00:31.266Z,18.28
2022-09-22T09:01:31.453Z,18.24
2022-09-22T09:02:34.471Z,18.39
2022-09-22T09:03:31.158Z,18.45
2022-09-22T09:04:31.187Z,18.49
2022-09-22T09:05:31.176Z,18.55
2022-09-22T09:06:31.188Z,18.81
2022-09-22T09:07:31.207Z,18.81
2022-09-22T09:08:31.169Z,18.83
2022-09-22T09:09:31.252Z,19.22
2022-09-22T09:10:31.363Z,19.42
2022-09-22T09:11:31.188Z,19.26
2022-09-22T09:12:31.191Z,19.63
2022-09-22T09:13:33.963Z,19.87
2022-09-22T09:14:31.210Z,19.92
2022-09-22T09:15:31.222Z,19.99
2022-09-22T09:16:34.188Z,20.04
2022-09-22T09:17:31.042Z,20.11
2022-09-22T09:18:31.195Z,20.22
2022-09-22T09:19:31.403Z,20.11
2022-09-22T09:20:31.126Z,20.49
2022-09-22T09:21:31.216Z,20.7
2022-09-22T09:22:31.216Z,20.53
2022-09-22T09:25:29.366Z,19.44
2022-09-22T09:26:38.720Z,20.08
2022-09-22T09:27:38.726Z,20.33
2022-09-22T09:28:38.746Z,20.7
2022-09-22T09:29:41.746Z,20.75
2022-09-22T09:30:38.785Z,20.4
2022-09-22T09:31:38.933Z,20.64
2022-09-22T09:32:38.738Z,20.78
2022-09-22T09:33:38.760Z,20.92
2022-09-22T09:34:38.737Z,20.67
2022-09-22T09:35:44.666Z,20.78
2022-09-22T09:36:38.747Z,21.05
2022-09-22T09:37:38.795Z,21.11
2022-09-22T09:38:38.746Z,20.98
2022-09-22T09:39:38.749Z,20.5
2022-09-22T09:40:41.855Z,20.74
2022-09-22T09:41:38.749Z,20.95
2022-09-22T09:42:38.746Z,20.96
2022-09-22T09:43:38.756Z,21
2022-09-22T09:44:38.752Z,21.3
2022-09-22T09:45:38.773Z,21.25
2022-09-22T09:46:39.015Z,21.2
2022-09-22T09:47:38.768Z,21.3
2022-09-22T09:48:38.764Z,21.19
2022-09-22T09:49:38.859Z,21.35
2022-09-22T09:50:38.791Z,21.5
2022-09-22T09:51:47.718Z,21.51
2022-09-22T09:52:38.816Z,21.65
2022-09-22T09:53:43.722Z,21.54
2022-09-22T09:54:39.804Z,21.68
2022-09-22T09:55:38.796Z,21.72
2022-09-22T09:56:41.859Z,21.78
2022-09-22T09:57:38.781Z,21.78
2022-09-22T09:58:38.818Z,21.35
2022-09-22T09:59:38.925Z,21.56
2022-09-22T10:00:38.826Z,21.59
2022-09-22T10:01:38.948Z,21.75
2022-09-22T10:02:41.731Z,21.83
2022-09-22T10:03:38.963Z,22.14
2022-09-22T10:04:38.800Z,22.04
2022-09-22T10:05:38.833Z,22.14
2022-09-22T10:06:38.835Z,22.19
2022-09-22T10:07:38.820Z,22.1
2022-09-22T10:08:38.969Z,21.88
2022-09-22T10:09:38.851Z,21.83
2022-09-22T10:10:38.834Z,21.59
2022-09-22T10:11:38.821Z,21.92
2022-09-22T10:12:38.843Z,21.59
2022-09-22T10:13:41.948Z,21.96
2022-09-22T10:14:38.804Z,22
2022-09-22T10:15:39.058Z,21.6
2022-09-22T10:16:38.900Z,21.94
2022-09-22T10:17:38.815Z,22.01
2022-09-22T10:18:38.839Z,21.51
2022-09-22T10:19:38.815Z,21.72
2022-09-22T10:20:38.836Z,21.99
2022-09-22T10:21:38.824Z,22.23
2022-09-22T10:22:44.295Z,22.28
2022-09-22T10:23:38.831Z,22.33
2022-09-22T10:24:41.907Z,22.44
2022-09-22T10:25:38.846Z,22.7
2022-09-22T10:26:38.835Z,22.28
2022-09-22T10:27:38.832Z,22.47
2022-09-22T10:28:38.865Z,22.51
2022-09-22T10:29:38.847Z,22.25
2022-09-22T10:30:38.977Z,21.99
2022-09-22T10:31:38.950Z,21.62
2022-09-22T10:32:38.841Z,22.26
2022-09-22T10:33:43.992Z,22.16
2022-09-22T10:34:39.119Z,22.37
2022-09-22T10:35:41.967Z,22.51
2022-09-22T10:36:38.846Z,22.62
2022-09-22T10:37:38.855Z,22.78
2022-09-22T10:39:38.856Z,22.28
2022-09-22T10:40:40.230Z,22.62
2022-09-22T10:41:38.879Z,22.68
2022-09-22T10:42:38.869Z,22.8
2022-09-22T10:43:38.893Z,22.77
2022-09-22T10:44:49.215Z,23.01
2022-09-22T10:45:38.896Z,22.92
2022-09-22T10:46:41.591Z,22.63
2022-09-22T10:47:38.876Z,22.76
2022-09-22T10:48:38.872Z,22.78
2022-09-22T10:49:38.885Z,22.88
2022-09-22T10:50:38.933Z,22.92
2022-09-22T10:51:41.720Z,23.02
2022-09-22T10:52:38.883Z,23.04
2022-09-22T10:53:38.903Z,22.95
2022-09-22T10:54:38.885Z,22.92
2022-09-22T10:55:38.899Z,23.02
2022-09-22T10:56:39.004Z,23.07
2022-09-22T10:57:41.723Z,22.95
2022-09-22T10:58:38.894Z,23.2
2022-09-22T10:59:38.886Z,23.32
2022-09-22T11:00:43.470Z,23.39
2022-09-22T11:01:39.083Z,23.49
2022-09-22T11:02:41.643Z,23.02
2022-09-22T11:03:38.593Z,23.04
2022-09-22T11:04:38.779Z,22.98
2022-09-22T11:05:38.909Z,22.44
2022-09-22T11:06:42.000Z,22.73
2022-09-22T11:07:38.923Z,23.01
2022-09-22T11:08:41.637Z,23.23
2022-09-22T11:09:39.015Z,23.07
2022-09-22T11:10:38.917Z,23.1
2022-09-22T11:11:43.488Z,22.68
2022-09-22T11:12:38.759Z,22.26
2022-09-22T11:13:41.931Z,22.67
2022-09-22T11:14:38.940Z,22.49
2022-09-22T11:15:39.097Z,22.89
2022-09-22T11:16:39.014Z,23.02
2022-09-22T11:17:38.920Z,23.21
2022-09-22T11:18:42.268Z,23.33
2022-09-22T11:19:38.946Z,23.29
2022-09-22T11:20:38.924Z,23.54
2022-09-22T11:21:38.948Z,23.54
2022-09-22T11:22:38.991Z,23.56
2022-09-22T11:23:38.934Z,23.64
2022-09-22T11:24:41.983Z,23.42
2022-09-22T11:25:38.947Z,23.17
2022-09-22T11:26:38.951Z,22.93
2022-09-22T11:27:39.077Z,22.93
2022-09-22T11:28:38.962Z,23.07
2022-09-22T11:29:38.974Z,22.99
2022-09-22T11:30:39.127Z,22.86
2022-09-22T11:31:38.959Z,22.96
2022-09-22T11:32:39.015Z,23.08
2022-09-22T11:33:38.987Z,23.02
2022-09-22T11:34:38.970Z,22.83
2022-09-22T11:35:38.970Z,23.07
2022-09-22T11:36:38.968Z,23.28
2022-09-22T11:37:38.971Z,23.14
2022-09-22T11:38:38.993Z,23.23
2022-09-22T11:39:38.973Z,23.04
2022-09-22T11:40:39.392Z,23.1
2022-09-22T11:41:38.990Z,23.11
2022-09-22T11:42:38.972Z,23.28
2022-09-22T11:43:39.002Z,23.33
2022-09-22T11:44:38.973Z,23.2
2022-09-22T11:45:38.979Z,23.39
2022-09-22T11:46:38.977Z,23.58
2022-09-22T11:47:38.990Z,23.62
2022-09-22T11:48:39.008Z,23.39
2022-09-22T11:49:38.989Z,23.47
2022-09-22T11:50:38.989Z,23.34
2022-09-22T11:51:39.162Z,23.54
2022-09-22T11:52:38.989Z,23.62
2022-09-22T11:53:39.064Z,23.82
2022-09-22T11:54:39.016Z,23.26
2022-09-22T11:55:39.001Z,23.14
2022-09-22T11:56:41.758Z,23.11
2022-09-22T11:57:41.841Z,23.59
2022-09-22T11:58:39.001Z,23.44
2022-09-22T11:59:39.025Z,23.54
2022-09-22T12:00:39.015Z,23.39
2022-09-22T12:01:39.051Z,23.29
2022-09-22T12:02:39.463Z,23.55
2022-09-22T12:03:39.546Z,23.84
2022-09-22T12:04:39.034Z,23.33
2022-09-22T12:05:39.053Z,23.66
2022-09-22T12:06:38.862Z,23.21
2022-09-22T12:07:41.936Z,22.18
2022-09-22T12:08:39.024Z,22.16
2022-09-22T12:09:42.042Z,22.15
2022-09-22T12:10:39.027Z,22.12
2022-09-22T12:11:39.026Z,21.58
2022-09-22T12:12:39.051Z,21.83
2022-09-22T12:13:39.063Z,21.69
2022-09-22T12:14:39.038Z,21.65
2022-09-22T12:15:39.297Z,21.53
2022-09-22T12:16:39.037Z,21.48
2022-09-22T12:17:39.041Z,20.98
2022-09-22T12:18:41.845Z,20.89
2022-09-22T12:19:39.153Z,20.96
2022-09-22T12:20:39.096Z,20.71
2022-09-22T12:21:39.049Z,20.86
2022-09-22T12:22:39.049Z,20.75
2022-09-22T12:23:39.065Z,20.8
2022-09-22T12:24:39.045Z,20.85
2022-09-22T12:25:57.561Z,20.78
2022-09-22T12:26:39.068Z,20.88
2022-09-22T12:27:39.053Z,20.71
2022-09-22T12:28:39.067Z,20.71
2022-09-22T12:29:43.847Z,20.6
2022-09-22T12:30:39.191Z,20.56
2022-09-22T12:31:39.137Z,20.46
2022-09-22T12:32:39.071Z,20.4
2022-09-22T12:33:39.065Z,20.37
2022-09-22T12:34:39.087Z,20.44
2022-09-22T12:35:39.066Z,20.39
2022-09-22T12:36:39.165Z,20.58
2022-09-22T12:37:39.080Z,20.49
2022-09-22T12:38:39.075Z,20.64
2022-09-22T12:39:39.079Z,20.8
2022-09-22T12:40:42.212Z,21.05
2022-09-22T12:41:39.195Z,21.28
2022-09-22T12:42:38.932Z,21.37
2022-09-22T12:43:39.281Z,21.62
2022-09-22T12:44:39.085Z,21.85
2022-09-22T12:45:39.159Z,21.99
2022-09-22T12:46:39.100Z,22.14
2022-09-22T12:47:39.151Z,21.92
2022-09-22T12:48:39.099Z,22.04
2022-09-22T12:49:39.096Z,22.06
2022-09-22T12:50:39.095Z,22.01
2022-09-22T12:51:44.953Z,22.3
2022-09-22T12:52:39.135Z,22.22
2022-09-22T12:54:39.116Z,22.61
2022-09-22T12:55:39.121Z,22.61
2022-09-22T12:56:39.130Z,22.76
2022-09-22T12:57:39.180Z,22.8
2022-09-22T12:58:39.111Z,23.06
2022-09-22T12:59:40.169Z,23.17
2022-09-22T13:00:39.142Z,23.13
2022-09-22T13:01:42.386Z,23.21
2022-09-22T13:02:42.171Z,23.17
2022-09-22T13:03:39.122Z,23.23
2022-09-22T13:04:39.124Z,23.28
2022-09-22T13:05:47.164Z,23.33
2022-09-22T13:06:39.152Z,23.48
2022-09-22T13:07:42.296Z,23.37
2022-09-22T13:08:39.125Z,23.06
2022-09-22T13:09:39.162Z,23.36
2022-09-22T13:10:39.140Z,23.21
2022-09-22T13:11:39.140Z,23.2
2022-09-22T13:12:39.202Z,23.4
2022-09-22T13:13:41.962Z,23.21
2022-09-22T13:14:39.152Z,23.14